Time;durP1;ratioP1;P1;durP2;ratioP2;P2;SDS_P1;SDS_P2;PMS_P1;PMS_P2;Temp;Humidity;BMP_temperature;BMP_pressure;BME280_temperature;BME280_humidity;BME280_pressure;Samples;Min_cycle;Max_cycle;Signal;HPM_P1;HPM_P2
2022/12/03 00:01:12;;;;;;;31.85;15.48;;;;;;;2.03;90.60;102541.63;5063667;28;20068;-76
2022/12/03 00:03:37;;;;;;;37.67;17.33;;;;;;;2.02;89.74;102545.31;5060493;28;20047;-76
2022/12/03 00:06:03;;;;;;;37.58;16.00;;;;;;;2.01;89.80;102538.19;5056612;28;20476;-74
2022/12/03 00:08:28;;;;;;;33.85;16.23;;;;;;;2.00;90.04;102535.59;5060541;28;20028;-76
2022/12/03 00:10:53;;;;;;;32.00;16.13;;;;;;;1.94;89.43;102533.28;5042823;28;20430;-76
2022/12/03 00:13:19;;;;;;;36.15;16.33;;;;;;;1.94;90.40;102533.28;5059367;28;20029;-73
2022/12/03 00:15:44;;;;;;;37.30;16.42;;;;;;;1.99;90.92;102541.97;5061686;28;20495;-75
2022/12/03 00:18:10;;;;;;;47.55;16.95;;;;;;;1.95;90.23;102535.91;5039956;28;20508;-75
2022/12/03 00:20:35;;;;;;;36.03;17.45;;;;;;;1.96;90.40;102543.03;5063794;28;20073;-75
2022/12/03 00:23:00;;;;;;;37.78;17.60;;;;;;;1.92;90.78;102532.53;5058860;28;20548;-74
2022/12/03 00:25:26;;;;;;;40.42;18.90;;;;;;;1.92;90.43;102538.78;5044827;28;20040;-73
2022/12/03 00:27:51;;;;;;;32.47;16.67;;;;;;;1.98;89.71;102542.94;5062339;28;20181;-75
2022/12/03 00:30:17;;;;;;;36.10;18.30;;;;;;;1.95;90.78;102530.50;5057759;28;20037;-74
2022/12/03 00:32:42;;;;;;;38.15;19.58;;;;;;;1.97;90.29;102536.66;5060011;28;20108;-74
2022/12/03 00:35:08;;;;;;;36.03;17.27;;;;;;;1.93;90.66;102534.25;5041728;28;20025;-77
2022/12/03 00:37:34;;;;;;;34.40;16.73;;;;;;;1.91;91.12;102531.66;5051101;28;20087;-75
2022/12/03 00:40:01;;;;;;;37.70;17.20;;;;;;;1.94;91.05;102522.47;5063299;28;20040;-75
2022/12/03 00:42:27;;;;;;;39.30;18.27;;;;;;;1.94;90.27;102533.28;5061479;28;20110;-76
2022/12/03 00:44:53;;;;;;;33.85;16.60;;;;;;;1.93;90.14;102523.47;5038392;28;20449;-75
2022/12/03 00:47:18;;;;;;;41.88;17.92;;;;;;;1.95;91.08;102524.22;5057798;28;20024;-74
2022/12/03 00:49:43;;;;;;;34.00;16.70;;;;;;;1.91;90.85;102522.66;5057598;28;20024;-74
2022/12/03 00:52:09;;;;;;;36.80;17.48;;;;;;;1.92;91.01;102510.91;5041571;28;20499;-73
2022/12/03 00:54:34;;;;;;;33.38;17.50;;;;;;;1.92;90.50;102519.03;5060130;28;20044;-76
2022/12/03 00:56:59;;;;;;;34.08;16.90;;;;;;;1.88;90.55;102512.94;5043777;28;20068;-76
2022/12/03 00:59:25;;;;;;;40.65;18.58;;;;;;;1.93;90.54;102521.59;5052646;28;20046;-77
2022/12/03 01:01:50;;;;;;;33.28;16.80;;;;;;;1.96;90.91;102512.44;5059015;28;20042;-75
2022/12/03 01:04:16;;;;;;;36.83;17.60;;;;;;;1.95;90.12;102513.41;5063399;28;20040;-74
2022/12/03 01:06:41;;;;;;;39.20;17.98;;;;;;;1.95;90.26;102511.56;5053945;28;20064;-75
2022/12/03 01:09:06;;;;;;;37.75;17.98;;;;;;;1.93;90.14;102505.38;5061343;28;20464;-75
2022/12/03 01:11:38;;;;;;;34.47;18.05;;;;;;;1.93;90.29;102510.78;5061327;28;20035;-75
2022/12/03 01:14:10;;;;;;;35.63;17.40;;;;;;;1.89;91.67;102503.88;5042479;28;20381;-76
2022/12/03 01:16:36;;;;;;;40.60;17.95;;;;;;;1.93;90.79;102502.69;5057649;28;20477;-74
2022/12/03 01:19:03;;;;;;;40.15;18.35;;;;;;;1.88;90.84;102510.22;5058886;28;20027;-74
2022/12/03 01:21:28;;;;;;;44.45;19.95;;;;;;;1.91;90.86;102509.16;5053977;28;20121;-78
2022/12/03 01:23:54;;;;;;;39.65;18.67;;;;;;;1.93;91.44;102512.66;5044002;28;20033;-77
2022/12/03 01:26:19;;;;;;;35.72;16.65;;;;;;;1.89;90.93;102501.19;5058441;28;20040;-75
2022/12/03 01:28:45;;;;;;;37.30;18.58;;;;;;;1.84;91.52;102497.91;5057667;28;20476;-77
2022/12/03 01:33:54;;;;;;;38.20;18.17;;;;;;;1.92;91.93;102497.41;5056720;28;20182;-76
2022/12/03 01:36:19;;;;;;;36.25;18.52;;;;;;;1.94;90.97;102501.72;5055078;28;20107;-75
2022/12/03 01:38:45;;;;;;;41.78;19.88;;;;;;;1.91;91.33;102501.06;5058460;28;20041;-77
2022/12/03 01:41:10;;;;;;;37.88;18.85;;;;;;;1.89;91.50;102503.88;5057749;28;20073;-76
2022/12/03 01:43:36;;;;;;;43.50;19.45;;;;;;;1.92;91.01;102492.84;5058536;28;20025;-75
2022/12/03 01:46:02;;;;;;;36.55;18.52;;;;;;;1.90;91.77;102491.22;5055206;28;20477;-74
2022/12/03 01:48:31;;;;;;;39.47;18.75;;;;;;;1.94;91.59;102498.16;5058233;28;20084;-77
2022/12/03 01:50:57;;;;;;;39.97;19.33;;;;;;;1.94;92.02;102498.16;5056756;28;20035;-76
2022/12/03 01:53:22;;;;;;;39.17;20.85;;;;;;;1.90;92.66;102488.53;5061512;28;20032;-73
2022/12/03 01:55:48;;;;;;;38.53;19.48;;;;;;;1.96;91.85;102493.50;5054796;28;20139;-76
2022/12/03 01:58:14;;;;;;;35.83;18.13;;;;;;;1.94;92.35;102493.63;5054902;28;20035;-76
2022/12/03 02:00:39;;;;;;;43.47;20.35;;;;;;;1.95;92.39;102491.78;5058387;28;20033;-76
2022/12/03 02:03:18;;;;;;;44.20;21.58;;;;;;;1.92;92.71;102492.84;5059588;28;20061;-74
2022/12/03 02:05:43;;;;;;;39.13;19.77;;;;;;;1.92;92.69;102494.72;5057501;28;20031;-75
2022/12/03 02:08:32;;;;;;;46.15;20.77;;;;;;;1.92;92.35;102495.56;5035734;28;20042;-76
2022/12/03 02:11:03;;;;;;;38.92;20.08;;;;;;;1.91;92.30;102491.13;5056840;28;20089;-73
2022/12/03 02:13:28;;;;;;;42.85;21.98;;;;;;;1.92;92.68;102492.00;5043785;28;20038;-74
2022/12/03 02:15:54;;;;;;;41.67;20.83;;;;;;;1.92;93.25;102508.22;5035152;28;20384;-76
2022/12/03 02:18:19;;;;;;;52.65;26.65;;;;;;;1.90;93.35;102497.50;5036848;28;20024;-76
2022/12/03 02:21:15;;;;;;;47.45;24.30;;;;;;;1.93;92.81;102494.59;5059719;28;20056;-77
2022/12/03 02:24:24;;;;;;;47.58;21.33;;;;;;;1.91;93.26;102495.66;5057030;28;20415;-75
2022/12/03 02:26:49;;;;;;;44.22;22.40;;;;;;;1.91;92.97;102490.25;5038813;28;20048;-76
2022/12/03 02:29:15;;;;;;;42.00;21.17;;;;;;;1.93;92.76;102489.19;5061626;28;20376;-75
2022/12/03 02:31:42;;;;;;;43.45;21.45;;;;;;;1.92;93.08;102492.84;5058816;28;20029;-75
2022/12/03 02:34:09;;;;;;;49.72;21.75;;;;;;;1.89;93.72;102487.69;5043536;28;20082;-75
2022/12/03 02:36:36;;;;;;;47.40;22.63;;;;;;;1.94;93.43;102485.50;5052421;28;20579;-76
2022/12/03 02:39:03;;;;;;;46.78;21.10;;;;;;;1.98;93.96;102497.00;5058167;28;20071;-76
2022/12/03 02:44:12;;;;;;;43.00;21.65;;;;;;;2.01;93.88;102491.38;5062342;28;20040;-77
2022/12/03 02:46:38;;;;;;;42.38;21.65;;;;;;;1.98;93.43;102486.19;5058920;28;20559;-75
2022/12/03 02:49:05;;;;;;;43.95;20.77;;;;;;;1.99;94.56;102480.66;5036620;28;20571;-76
2022/12/03 02:51:32;;;;;;;44.25;21.45;;;;;;;2.00;94.25;102484.25;5046824;28;20391;-76
2022/12/03 02:53:58;;;;;;;47.85;22.30;;;;;;;1.96;94.38;102477.31;5037644;28;20478;-76
2022/12/03 02:56:28;;;;;;;46.63;20.30;;;;;;;2.01;94.25;102478.75;5055442;28;20028;-76
2022/12/03 02:58:57;;;;;;;45.80;23.45;;;;;;;1.97;94.21;102479.03;5055749;28;20037;-76
2022/12/03 03:01:23;;;;;;;40.90;20.88;;;;;;;1.99;93.82;102479.81;5055842;28;20021;-75
2022/12/03 03:03:50;;;;;;;47.25;21.05;;;;;;;2.01;94.77;102475.16;5055768;28;20044;-77
2022/12/03 03:06:16;;;;;;;;;;;;;;;2.03;94.42;102478.66;5057456;28;20049;-75
2022/12/03 03:08:42;;;;;;;47.15;21.27;;;;;;;2.02;94.24;102476.88;5056673;28;20389;-76
2022/12/03 03:11:08;;;;;;;47.20;22.17;;;;;;;1.98;94.22;102470.84;5060586;28;20120;-76
2022/12/03 03:13:34;;;;;;;45.80;21.98;;;;;;;2.02;94.27;102474.19;5058970;28;20112;-76
2022/12/03 03:16:02;;;;;;;45.95;20.55;;;;;;;2.01;93.97;102473.34;5055200;28;20060;-76
2022/12/03 03:18:27;;;;;;;47.45;22.75;;;;;;;1.98;94.20;102472.69;5042477;28;20029;-77
2022/12/03 03:20:53;;;;;;;48.83;21.77;;;;;;;1.97;94.35;102469.09;5035079;28;20032;-75
2022/12/03 03:23:22;;;;;;;49.30;22.08;;;;;;;1.97;94.79;102470.94;5053342;28;20404;-75
2022/12/03 03:26:04;;;;;;;52.72;23.13;;;;;;;2.00;94.60;102462.63;5051430;28;20036;-75
2022/12/03 03:28:31;;;;;;;47.63;23.00;;;;;;;1.99;94.35;102456.34;5058550;28;20084;-75
2022/12/03 03:30:59;;;;;;;46.30;20.08;;;;;;;2.01;94.88;102458.94;5059374;28;20680;-75
2022/12/03 03:33:24;;;;;;;48.50;23.13;;;;;;;2.05;94.38;102458.66;5058703;28;20097;-75
2022/12/03 03:35:50;;;;;;;48.35;22.27;;;;;;;2.05;94.04;102455.97;5057614;28;20115;-76
2022/12/03 03:38:18;;;;;;;50.28;23.15;;;;;;;2.04;94.94;102456.91;5056944;28;20432;-76
2022/12/03 03:40:44;;;;;;;44.40;21.92;;;;;;;2.03;95.00;102459.75;5055593;28;20032;-76
2022/12/03 03:43:11;;;;;;;45.07;21.40;;;;;;;2.01;94.81;102448.16;5059420;28;20029;-76
2022/12/03 03:45:37;;;;;;;;;;;;;;;2.02;94.25;102460.69;5058384;28;20393;-77
2022/12/03 03:48:02;;;;;;;45.63;21.13;;;;;;;2.05;94.48;102450.56;5064272;28;19921;-76
2022/12/03 03:50:30;;;;;;;43.90;21.05;;;;;;;2.03;94.58;102455.19;5054634;28;20025;-76
2022/12/03 03:52:57;;;;;;;50.97;22.77;;;;;;;2.05;95.04;102446.97;5061435;28;20476;-76
2022/12/03 03:55:23;;;;;;;;;;;;;;;2.09;94.32;102449.34;5062960;28;20098;-76
2022/12/03 03:57:48;;;;;;;49.03;21.95;;;;;;;2.06;94.54;102448.69;5060190;28;19916;-77
2022/12/03 04:00:14;;;;;;;46.20;21.95;;;;;;;2.04;94.15;102445.25;5059920;28;20017;-73
2022/12/03 04:02:40;;;;;;;45.72;21.88;;;;;;;2.06;94.58;102432.50;5062327;28;20532;-75
2022/12/03 04:05:10;;;;;;;48.38;22.65;;;;;;;2.10;93.53;102437.56;5059384;28;20103;-74
2022/12/03 04:07:36;;;;;;;44.85;22.27;;;;;;;2.06;94.20;102443.28;5057193;28;20092;-75
2022/12/03 04:12:54;;;;;;;43.58;21.92;;;;;;;2.10;93.76;102434.03;5061368;28;20074;-76
2022/12/03 04:12:55;;;;;;;49.72;23.08;;;;;;;2.12;93.31;102438.34;5062638;28;20043;-76
2022/12/03 04:15:21;;;;;;;47.53;21.40;;;;;;;2.12;94.03;102440.19;5058911;28;20052;-75
2022/12/03 04:18:41;;;;;;;52.72;23.10;;;;;;;2.09;94.33;102440.41;5057216;28;20448;-75
2022/12/03 04:20:38;;;;;;;48.05;21.88;;;;;;;2.11;93.79;102441.16;5054056;28;20028;-77
2022/12/03 04:23:04;;;;;;;49.38;23.30;;;;;;;2.11;94.26;102438.44;5056483;28;20484;-76
2022/12/03 04:30:57;;;;;;;50.58;23.13;;;;;;;2.08;94.80;102434.13;5060168;28;20094;-76
2022/12/03 04:36:06;;;;;;;46.95;22.33;;;;;;;2.10;94.85;102432.16;5054570;28;20039;-75
2022/12/03 04:38:32;;;;;;;49.50;23.30;;;;;;;2.09;95.09;102421.50;5054539;28;20029;-74
2022/12/03 04:41:00;;;;;;;50.20;24.63;;;;;;;2.09;95.14;102424.19;5060819;28;20163;-74
2022/12/03 04:43:31;;;;;;;47.35;22.35;;;;;;;2.10;95.04;102420.50;5058960;28;20033;-75
2022/12/03 04:45:56;;;;;;;51.45;23.23;;;;;;;2.11;94.83;102419.53;5040277;28;20037;-74
2022/12/03 04:48:22;;;;;;;43.92;21.50;;;;;;;2.16;94.46;102420.09;5062657;28;20032;-75
2022/12/03 04:50:47;;;;;;;43.65;22.23;;;;;;;2.10;94.89;102412.41;5041019;28;20061;-75
2022/12/03 04:53:13;;;;;;;48.75;23.08;;;;;;;2.12;93.94;102413.16;5041507;28;20032;-75
2022/12/03 04:55:39;;;;;;;47.42;22.80;;;;;;;2.11;94.01;102411.44;5054354;28;20048;-76
2022/12/03 04:58:05;;;;;;;45.30;21.38;;;;;;;2.10;94.00;102410.53;5060993;28;20107;-76
2022/12/03 05:00:30;;;;;;;48.15;21.85;;;;;;;2.13;94.89;102407.66;5061239;28;20035;-75
2022/12/03 05:02:55;;;;;;;63.63;24.58;;;;;;;2.12;93.66;102408.63;5061436;28;20040;-75
2022/12/03 05:05:21;;;;;;;50.03;23.05;;;;;;;2.18;93.89;102410.03;5059627;28;20031;-73
2022/12/03 05:07:46;;;;;;;47.92;23.80;;;;;;;2.20;93.46;102408.09;5059683;28;20028;-74
2022/12/03 05:10:12;;;;;;;48.92;22.55;;;;;;;2.15;93.96;102407.56;5059971;28;20032;-74
2022/12/03 05:12:37;;;;;;;47.15;23.23;;;;;;;2.20;94.11;102410.81;5061771;28;20060;-74
2022/12/03 05:15:04;;;;;;;51.15;23.98;;;;;;;2.16;93.83;102420.09;5057250;28;20029;-75
2022/12/03 05:17:30;;;;;;;54.42;24.30;;;;;;;2.13;94.09;102410.34;5058910;28;20484;-75
2022/12/03 05:22:39;;;;;;;49.90;23.88;;;;;;;2.19;94.45;102409.94;5056385;28;20061;-75
2022/12/03 05:25:05;;;;;;;53.10;23.88;;;;;;;2.19;94.32;102414.47;5059958;28;20032;-74
2022/12/03 05:27:31;;;;;;;54.40;24.30;;;;;;;2.18;94.03;102402.78;5058206;28;20025;-75
2022/12/03 05:29:56;;;;;;;48.83;24.63;;;;;;;2.19;93.93;102412.63;5057498;28;20542;-77
2022/12/03 05:32:21;;;;;;;44.33;22.38;;;;;;;2.17;94.34;102401.06;5058168;28;20028;-75
2022/12/03 05:34:47;;;;;;;47.35;22.95;;;;;;;2.16;94.57;102402.03;5058167;28;20035;-75
2022/12/03 05:37:12;;;;;;;47.00;22.58;;;;;;;2.20;94.72;102395.44;5057074;28;20029;-75
2022/12/03 05:39:38;;;;;;;50.58;23.52;;;;;;;2.18;94.66;102393.81;5059274;28;20373;-75
2022/12/03 05:44:47;;;;;;;51.10;24.73;;;;;;;2.19;94.03;102401.81;5064243;28;20082;-75
2022/12/03 05:47:13;;;;;;;52.75;23.02;;;;;;;2.18;94.01;102386.56;5058350;28;20064;-75
2022/12/03 05:49:38;;;;;;;52.55;23.38;;;;;;;2.17;94.47;102389.38;5055976;28;20487;-74
2022/12/03 05:52:04;;;;;;;50.13;23.42;;;;;;;2.20;93.65;102383.78;5051124;28;20449;-75
2022/12/03 05:54:29;;;;;;;47.38;24.13;;;;;;;2.21;94.07;102397.19;5043328;28;20465;-75
2022/12/03 05:56:55;;;;;;;52.25;23.75;;;;;;;2.21;93.87;102393.59;5057205;28;20115;-74
2022/12/03 05:59:20;;;;;;;47.88;23.38;;;;;;;2.27;93.41;102385.06;5057164;28;20032;-73
2022/12/03 06:01:45;;;;;;;49.15;24.27;;;;;;;2.21;92.69;102382.81;5061345;28;20033;-76
2022/12/03 06:04:11;;;;;;;47.05;22.80;;;;;;;2.20;93.47;102387.31;5040818;28;20024;-74
2022/12/03 06:06:36;;;;;;;46.80;23.73;;;;;;;2.21;92.73;102380.97;5051736;28;20025;-75
2022/12/03 06:09:02;;;;;;;48.97;23.27;;;;;;;2.21;92.49;102380.09;5059539;28;20025;-75
2022/12/03 06:11:29;;;;;;;50.65;22.83;;;;;;;2.21;92.20;102383.69;5055835;28;20491;-75
2022/12/03 06:13:54;;;;;;;47.95;23.58;;;;;;;2.20;92.23;102389.19;5057388;28;20395;-74
2022/12/03 06:16:20;;;;;;;44.35;23.00;;;;;;;2.22;92.60;102376.41;5042714;28;20044;-75
2022/12/03 06:18:45;;;;;;;50.58;23.95;;;;;;;2.22;93.65;102371.88;5058619;28;20061;-77
2022/12/03 06:21:11;;;;;;;44.40;21.95;;;;;;;2.19;93.48;102376.66;5057721;28;20051;-74
2022/12/03 06:23:43;;;;;;;49.25;22.67;;;;;;;2.19;93.39;102365.84;5053372;28;20148;-73
2022/12/03 06:26:09;;;;;;;46.58;22.70;;;;;;;2.19;93.39;102372.09;5040143;28;20038;-76
2022/12/03 06:28:34;;;;;;;42.87;21.20;;;;;;;2.20;93.66;102364.84;5057488;28;20028;-75
2022/12/03 06:31:00;;;;;;;47.97;22.77;;;;;;;2.22;94.27;102365.59;5057728;28;20444;-75
2022/12/03 06:33:25;;;;;;;45.53;22.45;;;;;;;2.23;93.88;102373.63;5039844;28;20033;-73
2022/12/03 06:35:50;;;;;;;46.90;23.02;;;;;;;2.22;94.13;102362.91;5053980;28;20028;-74
2022/12/03 06:38:16;;;;;;;46.50;22.45;;;;;;;2.22;93.42;102371.00;5056690;28;20493;-73
2022/12/03 06:40:41;;;;;;;43.53;21.00;;;;;;;2.21;93.89;102370.16;5058903;28;20021;-76
2022/12/03 06:43:08;;;;;;;53.42;23.45;;;;;;;2.17;92.91;102375.88;5041898;28;20032;-74
2022/12/03 06:45:33;;;;;;;47.50;23.55;;;;;;;2.19;93.02;102377.50;5055571;28;20291;-75
2022/12/03 06:47:58;;;;;;;47.70;22.20;;;;;;;2.15;93.50;102369.72;5045581;28;20540;-76
2022/12/03 06:50:25;;;;;;;46.45;23.30;;;;;;;2.18;93.46;102377.59;5053302;28;20098;-74
2022/12/03 06:52:51;;;;;;;45.60;22.55;;;;;;;2.16;91.75;102372.31;5054742;28;20046;-76
2022/12/03 06:55:16;;;;;;;44.78;21.80;;;;;;;2.16;93.92;102366.03;5048633;28;20036;-75
2022/12/03 06:57:41;;;;;;;49.55;23.88;;;;;;;2.17;93.19;102370.47;5055782;28;20033;-75
2022/12/03 07:00:07;;;;;;;45.20;21.75;;;;;;;2.14;91.99;102370.69;5058542;28;20029;-74
2022/12/03 07:02:33;;;;;;;41.47;20.20;;;;;;;2.13;90.22;102371.63;5052325;28;20017;-73
2022/12/03 07:04:59;;;;;;;44.75;21.63;;;;;;;2.07;89.53;102375.66;5056873;28;20037;-74
2022/12/03 07:07:24;;;;;;;41.75;20.20;;;;;;;2.04;90.30;102377.69;5051205;28;20032;-74
2022/12/03 07:09:49;;;;;;;40.97;21.35;;;;;;;2.06;89.91;102386.56;5056717;28;20028;-76
2022/12/03 07:12:15;;;;;;;36.65;18.33;;;;;;;2.12;89.10;102380.72;5061699;28;20105;-73
2022/12/03 07:14:40;;;;;;;37.78;19.60;;;;;;;2.04;89.39;102381.25;5055875;28;20413;-76
2022/12/03 07:17:05;;;;;;;37.67;18.95;;;;;;;2.00;89.34;102387.84;5060915;28;20036;-78
2022/12/03 07:19:31;;;;;;;37.95;20.10;;;;;;;1.99;90.28;102380.69;5060171;28;20029;-75
2022/12/03 07:21:56;;;;;;;41.30;20.73;;;;;;;1.98;89.77;102378.13;5047196;28;20028;-75
2022/12/03 07:24:21;;;;;;;36.20;19.05;;;;;;;2.04;88.01;102385.81;5040721;28;20033;-75
2022/12/03 07:26:47;;;;;;;40.67;19.88;;;;;;;1.96;88.34;102386.31;5063242;28;20074;-76
2022/12/03 07:29:12;;;;;;;35.33;18.05;;;;;;;2.00;88.55;102386.97;5043261;28;20029;-76
2022/12/03 07:31:37;;;;;;;39.35;20.00;;;;;;;1.97;89.15;102376.38;5061883;28;20040;-76
2022/12/03 07:34:03;;;;;;;45.97;20.42;;;;;;;1.97;89.32;102392.56;5063018;28;20554;-77
2022/12/03 07:36:28;;;;;;;36.60;19.38;;;;;;;1.99;89.09;102393.34;5042110;28;20499;-76
2022/12/03 07:38:53;;;;;;;38.25;18.92;;;;;;;1.94;88.96;102388.25;5056854;28;20389;-76
2022/12/03 07:41:19;;;;;;;41.28;19.80;;;;;;;1.95;88.49;102392.72;5064899;28;20068;-74
2022/12/03 07:43:44;;;;;;;35.92;19.90;;;;;;;1.92;88.96;102392.91;5057539;28;20037;-75
2022/12/03 07:46:09;;;;;;;40.50;19.73;;;;;;;1.94;88.51;102390.94;5055989;28;20109;-76
2022/12/03 07:48:35;;;;;;;39.63;19.63;;;;;;;1.88;89.92;102395.94;5057988;28;20033;-76
2022/12/03 07:51:00;;;;;;;42.85;21.55;;;;;;;1.86;90.02;102395.16;5060735;28;20049;-76
2022/12/03 07:53:25;;;;;;;37.50;19.80;;;;;;;1.89;89.68;102386.84;5062682;28;20731;-75
2022/12/03 07:55:51;;;;;;;46.42;23.17;;;;;;;1.88;89.50;102383.28;5061348;28;20051;-75
2022/12/03 07:58:16;;;;;;;45.38;20.90;;;;;;;1.90;89.04;102383.16;5060695;28;20521;-75
2022/12/03 08:00:42;;;;;;;42.83;20.30;;;;;;;1.92;88.57;102387.50;5058915;28;20029;-75
2022/12/03 08:03:07;;;;;;;39.75;20.33;;;;;;;1.91;89.01;102390.28;5063550;28;20029;-76
2022/12/03 08:05:32;;;;;;;39.28;20.88;;;;;;;1.90;90.28;102383.16;5057439;28;20028;-75
2022/12/03 08:07:58;;;;;;;45.70;21.50;;;;;;;1.93;89.36;102381.13;5049056;28;20063;-75
2022/12/03 08:10:24;;;;;;;43.92;21.63;;;;;;;1.93;89.05;102375.72;5058762;28;20021;-75
2022/12/03 08:12:49;;;;;;;44.95;21.95;;;;;;;1.89;89.85;102373.34;5058593;28;20496;-76
2022/12/03 08:15:18;;;;;;;45.78;21.02;;;;;;;1.91;89.50;102380.38;5055184;28;20067;-75
2022/12/03 08:17:45;;;;;;;42.50;21.25;;;;;;;1.90;89.61;102367.84;5042171;28;20033;-74
2022/12/03 08:20:17;;;;;;;47.60;23.08;;;;;;;1.92;89.96;102370.44;5054257;28;20041;-76
2022/12/03 08:22:45;;;;;;;42.53;21.15;;;;;;;2.00;90.00;102370.78;5059799;28;20496;-74
2022/12/03 08:25:20;;;;;;;44.47;22.25;;;;;;;1.97;89.73;102366.44;5046678;28;20064;-76
2022/12/03 08:27:45;;;;;;;47.75;23.38;;;;;;;1.98;90.38;102370.03;5036900;28;20405;-74
2022/12/03 08:30:13;;;;;;;47.97;22.92;;;;;;;1.99;90.12;102369.88;5054641;28;20028;-74
2022/12/03 08:32:39;;;;;;;48.83;23.35;;;;;;;1.97;90.02;102374.53;5039804;28;20029;-77
2022/12/03 08:35:11;;;;;;;49.75;22.75;;;;;;;1.92;89.82;102373.16;5055743;28;20364;-75
2022/12/03 08:37:37;;;;;;;56.60;23.38;;;;;;;1.95;90.32;102375.63;5037225;28;20458;-75
2022/12/03 08:40:19;;;;;;;49.75;23.15;;;;;;;1.98;90.13;102370.03;5061624;28;20036;-75
2022/12/03 08:42:44;;;;;;;46.75;22.20;;;;;;;1.91;90.55;102371.38;5055659;28;20021;-78
2022/12/03 08:45:28;;;;;;;49.95;22.80;;;;;;;1.91;90.07;102374.09;5039616;28;20027;-75
2022/12/03 08:48:31;;;;;;;49.25;24.33;;;;;;;1.88;90.23;102372.47;5056703;28;20034;-74
2022/12/03 08:51:07;;;;;;;48.33;23.27;;;;;;;1.93;90.28;102372.16;5056018;28;20046;-74
2022/12/03 08:53:36;;;;;;;48.67;21.58;;;;;;;1.89;90.64;102363.41;5054157;28;20033;-76
2022/12/03 08:56:19;;;;;;;47.53;21.92;;;;;;;1.89;90.56;102371.53;5052943;28;20075;-75
2022/12/03 08:58:47;;;;;;;46.08;23.80;;;;;;;1.92;90.70;102371.28;5052024;28;20036;-75
2022/12/03 09:01:12;;;;;;;49.95;24.02;;;;;;;1.92;90.67;102379.41;5052133;28;20447;-74
2022/12/03 09:03:44;;;;;;;46.60;22.45;;;;;;;1.92;90.95;102367.75;5044392;28;20116;-73
2022/12/03 09:06:10;;;;;;;47.60;22.50;;;;;;;1.94;91.11;102365.78;5042135;28;20708;-74
2022/12/03 09:08:35;;;;;;;43.83;21.52;;;;;;;2.02;91.88;102358.88;5058343;28;20489;-76
2022/12/03 09:11:00;;;;;;;46.50;21.63;;;;;;;2.01;91.95;102365.28;5036593;28;20504;-75
2022/12/03 09:13:26;;;;;;;46.63;23.08;;;;;;;2.01;90.47;102359.88;5059076;28;20029;-73
2022/12/03 09:15:51;;;;;;;47.72;23.35;;;;;;;1.95;91.11;102362.13;5051729;28;20021;-74
2022/12/03 09:18:16;;;;;;;51.40;24.27;;;;;;;1.89;90.47;102351.72;5038525;28;20032;-72
2022/12/03 09:20:42;;;;;;;45.20;21.63;;;;;;;1.94;90.87;102355.84;5032946;28;20020;-73
2022/12/03 09:23:07;;;;;;;48.05;23.77;;;;;;;1.92;91.22;102346.13;5047909;28;20056;-76
2022/12/03 09:25:33;;;;;;;50.58;24.85;;;;;;;1.88;91.15;102358.97;5056257;28;20036;-76
2022/12/03 09:27:58;;;;;;;47.33;24.23;;;;;;;1.84;91.68;102345.78;5056149;28;20124;-76
2022/12/03 09:30:23;;;;;;;57.63;26.17;;;;;;;1.87;92.21;102345.59;5040341;28;20032;-75
2022/12/03 09:32:49;;;;;;;49.33;24.50;;;;;;;1.88;91.46;102350.84;5055084;28;20488;-76
2022/12/03 09:35:14;;;;;;;47.63;23.60;;;;;;;1.91;91.90;102341.66;5040359;28;20095;-76
2022/12/03 09:37:40;;;;;;;50.80;23.27;;;;;;;1.95;92.14;102354.00;5057619;28;20634;-76
2022/12/03 09:40:06;;;;;;;53.35;25.10;;;;;;;1.89;92.43;102351.72;5060355;28;20543;-75
2022/12/03 09:42:32;;;;;;;42.20;19.58;;;;;;;1.91;92.19;102355.19;5054528;28;20028;-76
2022/12/03 09:44:58;;;;;;;55.95;23.88;;;;;;;1.90;91.83;102345.34;5060302;28;20047;-75
2022/12/03 09:47:24;;;;;;;54.58;24.90;;;;;;;1.89;93.13;102358.00;5055828;28;20493;-73
2022/12/03 09:49:50;;;;;;;47.03;23.58;;;;;;;1.89;92.56;102352.59;5038893;28;20032;-74
2022/12/03 09:52:27;;;;;;;51.80;23.67;;;;;;;1.90;93.36;102356.16;5053965;28;20047;-72
2022/12/03 09:54:53;;;;;;;50.97;23.45;;;;;;;1.94;92.42;102357.69;5051160;28;20116;-73
2022/12/03 09:57:19;;;;;;;49.65;23.63;;;;;;;1.92;93.24;102348.84;5051537;28;20104;-75
2022/12/03 09:59:44;;;;;;;52.58;22.25;;;;;;;1.91;93.07;102355.19;5055015;28;20029;-76
2022/12/03 10:02:21;;;;;;;52.38;22.83;;;;;;;1.93;93.58;102350.56;5040951;28;20060;-75
2022/12/03 10:04:47;;;;;;;48.40;22.50;;;;;;;1.94;93.62;102355.84;5040833;28;20039;-73
2022/12/03 10:07:13;;;;;;;54.75;24.00;;;;;;;1.90;93.73;102348.06;5055526;28;20036;-75
2022/12/03 10:09:38;;;;;;;55.42;25.52;;;;;;;1.91;93.70;102355.19;5053616;28;20029;-75
2022/12/03 10:12:04;;;;;;;57.13;23.42;;;;;;;1.90;94.31;102348.06;5053321;28;20098;-74
2022/12/03 10:14:29;;;;;;;55.83;24.10;;;;;;;1.94;93.25;102350.44;5060423;28;20519;-76
2022/12/03 10:16:55;;;;;;;59.35;26.77;;;;;;;1.94;94.00;102349.59;5057545;28;20452;-75
2022/12/03 10:19:25;;;;;;;61.13;23.95;;;;;;;2.00;93.14;102349.16;5041956;28;20060;-75
2022/12/03 10:21:50;;;;;;;63.75;25.85;;;;;;;1.92;94.07;102338.88;5039514;28;20047;-74
2022/12/03 10:24:15;;;;;;;61.10;25.10;;;;;;;1.99;93.67;102333.91;5054589;28;20049;-72
2022/12/03 10:26:42;;;;;;;64.35;26.92;;;;;;;1.95;93.47;102341.38;5057336;28;20035;-75
2022/12/03 10:29:28;;;;;;;55.95;24.80;;;;;;;1.92;93.26;102335.31;5061253;28;20037;-75
2022/12/03 10:32:09;;;;;;;65.78;25.80;;;;;;;1.96;93.41;102326.91;5041942;28;20037;-74
2022/12/03 10:34:36;;;;;;;58.55;25.15;;;;;;;1.99;93.59;102328.53;5056700;28;20395;-75
2022/12/03 10:37:22;;;;;;;63.50;24.80;;;;;;;2.00;94.02;102317.63;5061676;28;20043;-74
2022/12/03 10:40:07;;;;;;;56.88;24.58;;;;;;;2.04;93.67;102327.22;5054984;28;20044;-74
2022/12/03 10:42:35;;;;;;;59.80;23.33;;;;;;;1.97;93.70;102311.53;5060921;28;20044;-74
2022/12/03 10:45:11;;;;;;;67.93;26.67;;;;;;;1.96;93.38;102315.22;5053279;28;20111;-76
2022/12/03 10:47:37;;;;;;;55.85;23.50;;;;;;;2.01;93.77;102307.66;5036743;28;20035;-76
2022/12/03 10:50:15;;;;;;;59.65;23.77;;;;;;;2.03;93.85;102311.13;5058855;28;20388;-76
2022/12/03 10:52:40;;;;;;;67.82;24.55;;;;;;;1.96;93.74;102297.19;5032818;28;20041;-75
2022/12/03 10:55:09;;;;;;;61.20;25.20;;;;;;;1.92;93.51;102303.75;5061936;28;20085;-76
2022/12/03 10:57:35;;;;;;;56.67;25.60;;;;;;;1.95;93.94;102298.16;5059924;28;20078;-73
2022/12/03 11:00:00;;;;;;;60.67;25.15;;;;;;;1.94;92.95;102295.56;5062110;28;20029;-76
2022/12/03 11:02:25;;;;;;;65.45;24.95;;;;;;;1.89;93.09;102289.59;5057486;28;20033;-75
2022/12/03 11:04:51;;;;;;;60.42;24.48;;;;;;;1.93;94.17;102291.97;5051224;28;20024;-75
2022/12/03 11:07:18;;;;;;;70.38;26.98;;;;;;;1.92;94.39;102289.41;5049749;28;20449;-74
2022/12/03 11:09:50;;;;;;;59.65;26.02;;;;;;;1.97;94.10;102289.91;5053111;28;20025;-75
2022/12/03 11:12:27;;;;;;;63.70;25.15;;;;;;;1.98;94.17;102287.13;5040038;28;20041;-75
2022/12/03 11:14:53;;;;;;;71.40;27.30;;;;;;;1.98;94.35;102289.81;5041666;28;20086;-77
2022/12/03 11:17:43;;;;;;;70.35;28.25;;;;;;;1.95;93.83;102279.25;5036462;28;20032;-74
2022/12/03 11:20:32;;;;;;;72.40;27.75;;;;;;;1.97;94.04;102281.81;5060314;28;20033;-74
2022/12/03 11:22:58;;;;;;;64.85;27.67;;;;;;;2.00;93.62;102276.22;5050093;28;20037;-73
2022/12/03 11:25:23;;;;;;;72.60;28.35;;;;;;;1.99;94.06;102272.63;5056040;28;20037;-73
2022/12/03 11:28:10;;;;;;;75.13;29.92;;;;;;;1.92;93.96;102267.78;5060520;28;20365;-74
2022/12/03 11:30:48;;;;;;;72.20;28.63;;;;;;;1.94;93.90;102265.84;5043185;28;20416;-74
2022/12/03 11:33:38;;;;;;;74.00;29.65;;;;;;;1.89;94.64;102260.78;5053030;28;20033;-75
2022/12/03 11:36:03;;;;;;;79.82;30.58;;;;;;;1.89;94.59;102259.88;5056764;28;20055;-75
2022/12/03 11:38:43;;;;;;;70.13;28.65;;;;;;;1.90;95.24;102261.63;5055153;28;20028;-75